Time;durP1;ratioP1;P1;durP2;ratioP2;P2;SDS_P1;SDS_P2;PMS_P1;PMS_P2;Temp;Humidity;BMP_temperature;BMP_pressure;BME280_temperature;BME280_humidity;BME280_pressure;Samples;Min_cycle;Max_cycle;Signal;HPM_P1;HPM_P2
2021/08/13 00:01:19;;;;;;;5.78;0.40;;;;;;;20.89;61.40;102019.66;5014313;28;20025;-95
2021/08/13 00:04:17;;;;;;;;;;;;;;;;;;;;;
2021/08/13 00:06:42;;;;;;;0.00;0.00;;;;;;;20.83;61.85;102010.00;5017030;28;20049;-91
2021/08/13 00:09:09;;;;;;;0.10;0.10;;;;;;;20.79;62.18;102007.53;5014031;28;20057;-93
2021/08/13 00:11:48;;;;;;;0.75;0.73;;;;;;;20.83;62.57;102017.22;5012698;28;20085;-92
2021/08/13 00:15:00;;;;;;;0.10;0.10;;;;;;;20.77;62.85;102009.41;5012173;28;20446;-92
2021/08/13 00:17:02;;;;;;;0.00;0.00;;;;;;;20.78;62.22;102011.19;4986109;28;20473;-91
2021/08/13 00:19:29;;;;;;;0.10;0.10;;;;;;;20.79;62.26;102018.31;5023859;28;20025;-91
2021/08/13 00:22:01;;;;;;;0.00;0.00;;;;;;;20.80;63.05;102020.94;5025269;28;20025;-91
2021/08/13 00:24:38;;;;;;;;;;;;;;;20.92;62.74;102016.84;5020721;28;20021;-89
2021/08/13 00:27:05;;;;;;;0.35;0.35;;;;;;;20.80;62.83;102009.31;5011735;28;19917;-91
2021/08/13 00:29:31;;;;;;;0.10;0.10;;;;;;;20.77;63.02;102014.81;5013558;28;20022;-90
2021/08/13 00:31:58;;;;;;;0.17;0.17;;;;;;;20.76;64.00;102029.22;4992722;28;20040;-91
2021/08/13 00:34:24;;;;;;;0.20;0.20;;;;;;;20.75;63.90;102032.84;5008707;28;20096;-90
2021/08/13 00:36:51;;;;;;;0.30;0.30;;;;;;;20.75;63.48;102032.84;5012670;28;20038;-91
2021/08/13 00:39:20;;;;;;;0.30;0.30;;;;;;;20.76;63.39;102027.41;5012803;28;20022;-91
2021/08/13 00:41:50;;;;;;;0.10;0.10;;;;;;;20.76;63.31;102032.78;5012402;28;20088;-90
2021/08/13 00:44:16;;;;;;;0.00;0.00;;;;;;;20.73;63.64;102035.59;5012250;28;20034;-90
2021/08/13 00:46:46;;;;;;;0.63;0.47;;;;;;;20.73;63.50;102040.13;5013312;28;20022;-90
2021/08/13 00:49:15;;;;;;;0.10;0.10;;;;;;;20.73;63.58;102043.69;5012463;28;20152;-90
2021/08/13 00:51:45;;;;;;;0.40;0.40;;;;;;;20.69;63.55;102042.06;5010583;28;20036;-90
2021/08/13 00:54:12;;;;;;;0.30;0.30;;;;;;;20.69;63.39;102045.59;5012698;28;20028;-90
2021/08/13 00:57:11;;;;;;;0.10;0.10;;;;;;;20.78;62.82;102048.88;5012499;28;20018;-90
2021/08/13 00:59:44;;;;;;;0.32;0.32;;;;;;;20.71;64.58;102042.91;5012121;28;20033;-92
2021/08/13 01:02:11;;;;;;;0.00;0.00;;;;;;;20.68;64.13;102037.59;5013053;28;20029;-91
2021/08/13 01:04:40;;;;;;;4.85;1.15;;;;;;;20.62;64.59;102036.06;5012201;28;20385;-91
2021/08/13 01:07:08;;;;;;;0.38;0.38;;;;;;;20.63;63.59;102043.19;5012749;28;20033;-91
2021/08/13 01:09:40;;;;;;;0.52;0.52;;;;;;;20.59;64.39;102057.72;5012066;28;20033;-91
2021/08/13 01:12:24;;;;;;;0.10;0.10;;;;;;;20.62;64.44;102054.91;5012200;28;20397;-91
2021/08/13 01:18:05;;;;;;;0.10;0.10;;;;;;;20.61;64.07;102049.56;4886290;27;7427969;-91
2021/08/13 01:24:41;;;;;;;0.00;0.00;;;;;;;20.60;63.76;102051.41;4788054;27;8656403;-92
2021/08/13 01:27:17;;;;;;;0.35;0.35;;;;;;;20.53;63.63;102055.28;5068911;28;20029;-91
2021/08/13 01:30:14;;;;;;;;;;;;;;;;;;;;;
2021/08/13 01:33:31;;;;;;;;;;;;;;;;;;;;;
2021/08/13 01:36:13;;;;;;;1.88;0.52;;;;;;;20.45;63.82;102055.63;5033864;28;20143;-91
2021/08/13 01:39:07;;;;;;;0.45;0.45;;;;;;;20.41;64.08;102056.72;5060216;28;20028;-90
2021/08/13 01:41:57;;;;;;;0.88;0.88;;;;;;;20.39;64.43;102060.38;5059572;28;20074;-91
2021/08/13 01:44:37;;;;;;;0.70;0.70;;;;;;;20.35;64.23;102057.81;5058136;28;20033;-91
2021/08/13 01:47:21;;;;;;;0.20;0.20;;;;;;;20.36;64.01;102045.22;5059211;28;20381;-91
2021/08/13 01:49:51;;;;;;;0.52;0.52;;;;;;;20.28;64.29;102042.00;5059551;28;20025;-91
2021/08/13 01:52:41;;;;;;;0.10;0.10;;;;;;;20.34;64.18;102045.31;5057495;28;20033;-91
2021/08/13 01:55:14;;;;;;;1.90;1.77;;;;;;;20.27;64.25;102049.19;5026759;28;20057;-91
2021/08/13 01:58:14;;;;;;;;;;;;;;;;;;;;;
2021/08/13 02:00:52;;;;;;;0.10;0.10;;;;;;;20.15;64.72;102053.28;5040769;28;20055;-92
2021/08/13 02:03:27;;;;;;;1.13;1.08;;;;;;;20.20;64.89;102055.78;5060203;28;20139;-91
2021/08/13 02:06:04;;;;;;;0.20;0.20;;;;;;;20.16;64.61;102064.91;5059885;28;20033;-91
2021/08/13 02:08:46;;;;;;;0.90;0.90;;;;;;;20.19;64.59;102068.34;5069248;28;20127;-92
2021/08/13 02:11:14;;;;;;;0.10;0.10;;;;;;;20.11;64.92;102066.91;5069338;28;20544;-92
2021/08/13 02:13:42;;;;;;;0.52;0.52;;;;;;;20.09;64.90;102072.38;5069091;28;20036;-94
2021/08/13 02:16:16;;;;;;;0.85;0.85;;;;;;;20.09;64.86;102079.53;5068859;28;20467;-92
2021/08/13 02:18:55;;;;;;;0.35;0.35;;;;;;;20.09;65.02;102076.84;5061274;28;20041;-91
2021/08/13 02:21:36;;;;;;;3.30;0.57;;;;;;;20.06;64.95;102076.97;5060257;28;20026;-90
2021/08/13 02:24:08;;;;;;;0.10;0.10;;;;;;;20.06;64.72;102068.91;5081928;28;20029;-92
2021/08/13 02:26:35;;;;;;;;;;;;;;;20.12;64.90;102060.59;5069586;28;20037;-91
2021/08/13 02:29:07;;;;;;;0.98;0.98;;;;;;;20.01;64.96;102061.91;5069218;28;19989;-90
2021/08/13 02:31:37;;;;;;;0.50;0.50;;;;;;;19.99;64.85;102061.09;5069349;28;20017;-91
2021/08/13 02:34:06;;;;;;;0.82;0.82;;;;;;;19.95;64.90;102062.16;5066392;28;20052;-91
2021/08/13 02:46:23;;;;;;;0.30;0.30;;;;;;;19.93;64.99;102055.09;5109324;27;20938;-91
2021/08/13 02:49:13;;;;;;;1.95;1.80;;;;;;;19.89;65.27;102048.97;5078958;28;20036;-90
2021/08/13 02:51:42;;;;;;;0.88;0.43;;;;;;;19.82;65.10;102045.59;5086194;28;20028;-89
2021/08/13 02:54:25;;;;;;;0.20;0.20;;;;;;;19.85;64.87;102052.69;5089214;28;20025;-90
2021/08/13 02:57:33;;;;;;;0.20;0.20;;;;;;;19.89;65.07;102046.28;5113613;22;20337;-90
2021/08/13 03:00:14;;;;;;;0.10;0.10;;;;;;;19.82;65.32;102047.41;5069240;28;20090;-89
2021/08/13 03:03:13;;;;;;;0.40;0.40;;;;;;;19.86;64.91;102047.28;5066345;28;20060;-89
2021/08/13 03:06:14;;;;;;;0.20;0.20;;;;;;;19.84;64.75;102035.69;5061177;28;20052;-90
2021/08/13 03:09:10;;;;;;;0.20;0.20;;;;;;;19.83;64.89;102041.13;5040594;28;20038;-89
2021/08/13 03:11:44;;;;;;;0.35;0.35;;;;;;;19.79;65.00;102036.75;5036516;28;20022;-91
2021/08/13 03:14:11;;;;;;;3.40;1.65;;;;;;;19.72;65.04;102038.84;5039619;28;20084;-91
2021/08/13 03:16:42;;;;;;;0.10;0.10;;;;;;;19.72;65.21;102042.38;5043800;28;20083;-90
2021/08/13 03:19:12;;;;;;;3.15;2.15;;;;;;;19.69;64.55;102042.53;5033390;28;20066;-90
2021/08/13 03:21:47;;;;;;;1.60;1.17;;;;;;;19.62;65.42;102041.00;5043823;28;20053;-90
2021/08/13 03:24:20;;;;;;;0.65;0.65;;;;;;;19.67;65.57;102046.22;5038926;28;20037;-90
2021/08/13 03:26:51;;;;;;;0.50;0.50;;;;;;;19.70;65.14;102041.59;5044835;28;20059;-91
2021/08/13 03:29:26;;;;;;;0.57;0.57;;;;;;;19.68;65.05;102048.81;5034093;28;20026;-90
2021/08/13 03:31:59;;;;;;;0.10;0.10;;;;;;;19.73;65.26;102048.66;5041544;28;20032;-90
2021/08/13 03:34:27;;;;;;;0.13;0.13;;;;;;;19.68;65.50;102046.13;5042533;28;20037;-91
2021/08/13 03:37:00;;;;;;;0.00;0.00;;;;;;;19.68;65.39;102039.91;5044833;28;20071;-90
2021/08/13 03:39:29;;;;;;;0.75;0.75;;;;;;;19.78;64.40;102045.78;5034160;28;20030;-90
2021/08/13 03:41:56;;;;;;;0.68;0.68;;;;;;;19.68;64.80;102045.28;5041115;28;20480;-90
2021/08/13 03:44:23;;;;;;;0.32;0.32;;;;;;;19.70;64.54;102038.91;5041184;28;20476;-89
2021/08/13 03:46:54;;;;;;;1.35;1.17;;;;;;;19.76;64.63;102044.97;5033691;28;20032;-89
2021/08/13 03:49:23;;;;;;;0.10;0.10;;;;;;;19.67;65.13;102044.38;5032562;28;20018;-89
2021/08/13 03:51:57;;;;;;;1.35;1.27;;;;;;;19.64;65.39;102038.25;5041832;28;20032;-90
2021/08/13 03:54:34;;;;;;;0.10;0.10;;;;;;;19.63;65.45;102032.00;5040145;28;20108;-90
2021/08/13 03:57:05;;;;;;;0.45;0.45;;;;;;;19.65;65.05;102029.25;5019865;28;20464;-90
2021/08/13 03:59:37;;;;;;;0.45;0.45;;;;;;;19.68;64.83;102035.38;5020649;28;20037;-89
2021/08/13 04:02:04;;;;;;;0.00;0.00;;;;;;;19.61;65.17;102038.38;5034820;28;20025;-90
2021/08/13 04:04:32;;;;;;;0.20;0.20;;;;;;;19.62;64.86;102032.94;5022258;28;20389;-90
2021/08/13 04:06:58;;;;;;;0.10;0.10;;;;;;;19.60;64.91;102032.16;5032088;28;20393;-90
2021/08/13 04:09:37;;;;;;;;;;;;;;;;;;;;;
2021/08/13 04:12:13;;;;;;;0.40;0.40;;;;;;;19.57;65.25;102037.63;5025440;28;20095;-90
2021/08/13 04:14:40;;;;;;;0.45;0.45;;;;;;;19.48;65.69;102035.31;5021164;28;20088;-89
2021/08/13 04:17:29;;;;;;;1.10;1.02;;;;;;;19.59;65.17;102035.75;5022354;28;20037;-90
2021/08/13 04:20:06;;;;;;;0.10;0.10;;;;;;;19.53;65.15;102041.38;5034253;28;20038;-91
2021/08/13 04:22:32;;;;;;;0.25;0.25;;;;;;;19.54;64.77;102049.38;5018536;28;20037;-90
2021/08/13 04:24:58;;;;;;;1.40;0.43;;;;;;;19.49;65.43;102051.38;5014918;28;20038;-90
2021/08/13 04:27:32;;;;;;;0.68;0.68;;;;;;;19.52;65.40;102055.75;5026722;28;20108;-90
2021/08/13 04:30:10;;;;;;;3.67;0.88;;;;;;;19.56;65.27;102057.38;5034101;28;20025;-91
2021/08/13 04:32:42;;;;;;;5.18;2.00;;;;;;;19.55;64.99;102060.97;5021921;28;20116;-92
2021/08/13 04:35:12;;;;;;;0.80;0.80;;;;;;;19.51;65.18;102059.34;5029641;28;20045;-91
2021/08/13 04:38:05;;;;;;;0.00;0.00;;;;;;;19.52;65.31;102056.59;5021939;28;20034;-90
2021/08/13 04:43:36;;;;;;;0.10;0.10;;;;;;;19.58;64.96;102060.88;5043509;28;20516;-93
2021/08/13 04:46:50;;;;;;;0.43;0.43;;;;;;;19.62;64.82;102054.44;5025732;28;20382;-95
2021/08/13 04:49:18;;;;;;;0.05;0.05;;;;;;;19.56;65.37;102054.69;5006889;28;20051;-92
2021/08/13 04:52:21;;;;;;;;;;;;;;;;;;;;;
2021/08/13 04:55:41;;;;;;;0.73;0.73;;;;;;;19.65;65.35;102056.13;5005621;28;20057;-93
2021/08/13 04:58:09;;;;;;;2.22;2.08;;;;;;;19.62;65.06;102061.66;4972366;28;20057;-88
2021/08/13 05:01:04;;;;;;;0.10;0.10;;;;;;;19.75;65.00;102062.03;4996386;28;20030;-92
2021/08/13 05:03:36;;;;;;;0.10;0.10;;;;;;;19.65;65.35;102059.72;5025561;28;20056;-91
2021/08/13 05:06:02;;;;;;;0.08;0.08;;;;;;;19.67;65.41;102051.59;5020815;28;20147;-84
2021/08/13 05:08:29;;;;;;;0.20;0.20;;;;;;;19.63;65.51;102053.50;5022188;28;20108;-88
2021/08/13 05:10:55;;;;;;;0.25;0.25;;;;;;;19.70;65.18;102049.66;5031774;28;20048;-85
2021/08/13 05:13:21;;;;;;;0.20;0.20;;;;;;;19.76;65.27;102047.66;5033335;28;20041;-90
2021/08/13 05:23:28;;;;;;;0.40;0.40;;;;;;;19.90;65.49;102049.81;5283956;22;20045;-87
2021/08/13 05:25:57;;;;;;;0.10;0.10;;;;;;;19.86;65.53;102049.06;5013884;28;20087;-88
2021/08/13 05:28:23;;;;;;;0.10;0.10;;;;;;;20.01;64.93;102048.47;5014224;28;20038;-87
2021/08/13 05:30:49;;;;;;;0.20;0.20;;;;;;;20.04;65.15;102048.31;5001312;28;20022;-90
2021/08/13 05:33:15;;;;;;;0.20;0.20;;;;;;;20.06;64.98;102050.94;4994247;28;20117;-87
2021/08/13 05:35:42;;;;;;;0.45;0.45;;;;;;;20.09;64.84;102049.94;4993727;28;20026;-88
2021/08/13 05:38:08;;;;;;;0.10;0.10;;;;;;;20.18;64.72;102060.34;4994435;28;20035;-87
2021/08/13 05:40:35;;;;;;;0.08;0.08;;;;;;;20.13;64.99;102073.13;4994231;28;20061;-86
2021/08/13 05:43:01;;;;;;;0.17;0.17;;;;;;;20.21;64.84;102076.34;4994539;28;20069;-86
2021/08/13 05:45:27;;;;;;;0.25;0.25;;;;;;;20.19;64.99;102065.66;4994005;28;20449;-87
2021/08/13 05:47:54;;;;;;;3.25;0.55;;;;;;;20.27;64.60;102065.34;4994428;28;20366;-86
2021/08/13 05:50:20;;;;;;;0.43;0.43;;;;;;;20.32;64.94;102057.06;4994257;28;20441;-86
2021/08/13 05:52:46;;;;;;;0.30;0.30;;;;;;;20.25;64.93;102059.16;4994093;28;20031;-86
2021/08/13 05:55:16;;;;;;;0.20;0.20;;;;;;;20.34;64.76;102069.53;4993762;28;20099;-86
2021/08/13 05:57:44;;;;;;;0.30;0.30;;;;;;;20.44;64.70;102066.47;4993870;28;20037;-88
2021/08/13 06:00:11;;;;;;;0.30;0.30;;;;;;;20.49;64.68;102075.22;4993223;28;20096;-88
2021/08/13 06:02:37;;;;;;;0.20;0.20;;;;;;;20.57;64.57;102077.59;4993685;28;20029;-90
2021/08/13 06:05:04;;;;;;;0.25;0.25;;;;;;;20.66;64.46;102088.84;4993508;28;20477;-88
2021/08/13 06:07:30;;;;;;;1.45;1.35;;;;;;;20.59;64.72;102078.41;4993817;28;20030;-89
2021/08/13 06:09:56;;;;;;;0.77;0.77;;;;;;;20.69;64.18;102088.69;4993640;28;20018;-89
2021/08/13 06:12:22;;;;;;;0.10;0.10;;;;;;;20.79;63.96;102091.03;4993846;28;20137;-89
2021/08/13 06:14:48;;;;;;;0.45;0.45;;;;;;;20.81;64.30;102084.63;4993451;28;20390;-89
2021/08/13 06:17:15;;;;;;;3.15;0.57;;;;;;;20.88;63.98;102087.94;4993561;28;20127;-89
2021/08/13 06:19:41;;;;;;;0.65;0.65;;;;;;;20.90;63.88;102086.06;4993772;28;20030;-88
2021/08/13 06:22:07;;;;;;;0.03;0.03;;;;;;;20.98;63.69;102089.25;4993593;28;20030;-88
2021/08/13 06:24:33;;;;;;;0.32;0.32;;;;;;;21.03;63.73;102082.81;4993633;28;20038;-89
2021/08/13 06:26:59;;;;;;;0.17;0.17;;;;;;;21.01;63.62;102097.22;4994029;28;20037;-89
2021/08/13 06:29:25;;;;;;;0.65;0.65;;;;;;;20.98;63.80;102094.66;4993460;28;20497;-88
2021/08/13 06:31:52;;;;;;;0.20;0.20;;;;;;;21.05;63.71;102092.59;4993748;28;20056;-89
2021/08/13 06:34:18;;;;;;;0.20;0.20;;;;;;;20.94;64.19;102098.44;4997545;28;20026;-91
2021/08/13 06:36:45;;;;;;;0.10;0.10;;;;;;;20.94;63.89;102098.44;4994208;28;20029;-89
2021/08/13 06:39:12;;;;;;;0.65;0.65;;;;;;;21.22;63.51;102091.84;4994434;28;20026;-89
2021/08/13 06:41:38;;;;;;;0.20;0.20;;;;;;;21.16;63.86;102098.38;4994014;28;20019;-89
2021/08/13 06:44:05;;;;;;;0.40;0.40;;;;;;;21.41;63.34;102090.97;4992680;28;20093;-88
2021/08/13 06:47:41;;;;;;;;;;;;;;;;;;;;;
2021/08/13 06:50:10;;;;;;;0.40;0.40;;;;;;;21.41;63.42;102104.44;4974182;28;20393;-85
2021/08/13 06:52:37;;;;;;;0.13;0.13;;;;;;;21.58;62.96;102107.31;4990248;28;20019;-87
2021/08/13 06:55:04;;;;;;;0.10;0.10;;;;;;;21.69;62.82;102109.47;4992833;28;20448;-87
2021/08/13 06:57:31;;;;;;;0.10;0.10;;;;;;;21.76;62.76;102120.88;4993072;28;20093;-85
2021/08/13 06:59:57;;;;;;;0.40;0.40;;;;;;;21.74;62.79;102114.66;4992919;28;20093;-86
2021/08/13 07:02:23;;;;;;;0.93;0.85;;;;;;;21.76;62.63;102115.50;4992828;28;20088;-86
2021/08/13 07:04:49;;;;;;;0.10;0.10;;;;;;;21.78;62.83;102117.16;4993155;28;20137;-86
2021/08/13 07:07:16;;;;;;;0.20;0.20;;;;;;;21.73;62.97;102113.81;4993033;28;20069;-86
2021/08/13 07:09:46;;;;;;;1.02;0.93;;;;;;;21.85;62.65;102117.72;4992863;28;20029;-84
2021/08/13 07:12:14;;;;;;;0.20;0.20;;;;;;;21.78;62.28;102122.56;4993128;28;20429;-89
2021/08/13 07:14:40;;;;;;;0.65;0.65;;;;;;;21.81;61.15;102122.41;4993095;28;20133;-87
2021/08/13 07:17:07;;;;;;;0.10;0.10;;;;;;;21.90;61.61;102126.47;4993011;28;20034;-86
2021/08/13 07:19:33;;;;;;;0.10;0.10;;;;;;;21.89;60.73;102135.50;4993104;28;20059;-86
2021/08/13 07:21:59;;;;;;;0.10;0.10;;;;;;;21.88;60.77;102131.09;4993061;28;20031;-87
2021/08/13 07:24:25;;;;;;;1.45;0.88;;;;;;;21.91;60.31;102125.53;4993106;28;20039;-86
2021/08/13 07:26:52;;;;;;;0.28;0.28;;;;;;;22.06;60.00;102128.47;4993018;28;20035;-86
2021/08/13 07:29:22;;;;;;;1.80;0.63;;;;;;;22.03;60.12;102131.28;4992967;28;20077;-87
2021/08/13 07:31:49;;;;;;;0.80;0.68;;;;;;;22.09;59.26;102120.19;4995128;28;20405;-87
2021/08/13 07:34:15;;;;;;;0.95;0.77;;;;;;;22.17;57.99;102115.31;4996313;28;20030;-89
2021/08/13 07:36:41;;;;;;;0.10;0.10;;;;;;;22.20;57.90;102119.69;4996716;28;20026;-87
2021/08/13 07:39:07;;;;;;;0.10;0.10;;;;;;;22.39;57.99;102131.38;4997178;28;20385;-87
2021/08/13 07:41:34;;;;;;;0.22;0.22;;;;;;;22.32;57.63;102147.88;4996299;28;20042;-89
2021/08/13 07:44:00;;;;;;;0.43;0.43;;;;;;;22.59;57.34;102162.78;4996365;28;20145;-85
2021/08/13 07:46:26;;;;;;;0.65;0.65;;;;;;;22.52;56.46;102168.53;4996212;28;20038;-82
2021/08/13 07:48:52;;;;;;;0.10;0.10;;;;;;;22.35;54.97;102158.56;4995866;28;20026;-83
2021/08/13 07:51:18;;;;;;;0.10;0.10;;;;;;;22.40;55.31;102151.13;4995430;28;20035;-82
2021/08/13 07:53:45;;;;;;;0.43;0.43;;;;;;;22.21;54.92;102160.09;4995567;28;20757;-88
2021/08/13 07:56:14;;;;;;;0.10;0.10;;;;;;;22.31;55.13;102149.72;4995833;28;20033;-90
2021/08/13 07:58:40;;;;;;;0.70;0.70;;;;;;;22.35;54.97;102156.72;4995342;28;20527;-88
2021/08/13 08:01:06;;;;;;;0.10;0.10;;;;;;;22.28;54.74;102142.66;4995561;28;20026;-89
2021/08/13 08:03:33;;;;;;;0.10;0.10;;;;;;;22.28;55.00;102153.47;4995438;28;20080;-89
2021/08/13 08:05:59;;;;;;;1.02;0.95;;;;;;;22.37;54.60;102164.75;4995718;28;20026;-89
2021/08/13 08:08:25;;;;;;;0.10;0.10;;;;;;;22.33;54.94;102179.34;4995349;28;20078;-90
2021/08/13 08:10:52;;;;;;;0.57;0.47;;;;;;;22.19;54.94;102166.53;4996266;28;20104;-91
2021/08/13 08:13:18;;;;;;;0.20;0.20;;;;;;;22.54;54.71;102154.03;4995502;28;20108;-90
2021/08/13 08:15:46;;;;;;;0.05;0.05;;;;;;;22.75;54.52;102143.97;4995656;28;20098;-90
2021/08/13 08:18:12;;;;;;;0.00;0.00;;;;;;;22.76;54.49;102151.09;4995153;28;20037;-89
2021/08/13 08:20:38;;;;;;;0.00;0.00;;;;;;;22.66;54.33;102163.34;4992879;28;20178;-91
2021/08/13 08:23:05;;;;;;;0.20;0.20;;;;;;;22.67;54.03;102169.59;4995590;28;20030;-89
2021/08/13 08:25:32;;;;;;;0.47;0.47;;;;;;;22.73;53.84;102159.38;4995990;28;20031;-93
2021/08/13 08:27:59;;;;;;;0.35;0.35;;;;;;;22.97;53.62;102169.00;4993323;28;20030;-90
2021/08/13 08:30:25;;;;;;;0.38;0.38;;;;;;;22.90;52.74;102177.44;4992821;28;20026;-90
2021/08/13 08:32:51;;;;;;;0.38;0.38;;;;;;;23.04;52.53;102174.03;4994570;28;20030;-91
2021/08/13 08:35:17;;;;;;;0.13;0.13;;;;;;;22.86;52.84;102175.84;4995677;28;20509;-91
2021/08/13 08:38:00;;;;;;;0.10;0.10;;;;;;;23.09;52.20;102182.78;4994787;28;20105;-91
2021/08/13 08:40:30;;;;;;;0.00;0.00;;;;;;;22.92;51.91;102196.28;4992701;28;20084;-90
2021/08/13 08:42:59;;;;;;;0.10;0.10;;;;;;;22.97;52.04;102193.31;4992496;28;20496;-91
2021/08/13 08:45:27;;;;;;;0.20;0.20;;;;;;;23.21;51.95;102183.97;4995931;28;20031;-91
2021/08/13 08:47:57;;;;;;;0.43;0.43;;;;;;;23.10;52.60;102189.03;4995300;28;20033;-87
2021/08/13 08:50:35;;;;;;;0.10;0.10;;;;;;;23.48;51.83;102186.19;4995743;28;20033;-91
2021/08/13 08:53:07;;;;;;;0.20;0.20;;;;;;;23.44;51.08;102192.72;4992827;28;20517;-90
2021/08/13 08:55:42;;;;;;;0.20;0.20;;;;;;;23.75;50.95;102204.59;4993989;28;20030;-92
2021/08/13 08:58:10;;;;;;;0.00;0.00;;;;;;;23.82;50.76;102214.13;4983401;28;20041;-91
2021/08/13 09:00:37;;;;;;;5.32;1.00;;;;;;;23.71;50.15;102206.59;4995455;28;20041;-91
2021/08/13 09:03:04;;;;;;;0.10;0.10;;;;;;;23.74;50.68;102219.09;4995668;28;20125;-91
2021/08/13 09:05:30;;;;;;;3.33;1.67;;;;;;;23.92;50.64;102217.25;4995433;28;20390;-91
2021/08/13 09:07:56;;;;;;;0.10;0.10;;;;;;;23.98;50.73;102221.47;4995407;28;20030;-91
2021/08/13 09:10:22;;;;;;;0.10;0.10;;;;;;;23.88;50.89;102219.19;4995771;28;20041;-90
2021/08/13 09:12:52;;;;;;;0.17;0.17;;;;;;;24.06;50.45;102230.00;4995205;28;20026;-91
2021/08/13 09:15:37;;;;;;;0.10;0.10;;;;;;;23.90;50.37;102238.94;4995414;28;20050;-91
2021/08/13 09:18:24;;;;;;;0.47;0.43;;;;;;;24.05;49.93;102231.84;4994920;28;20069;-92
2021/08/13 09:23:43;;;;;;;0.30;0.30;;;;;;;24.10;50.05;102225.31;5090620;27;20175;-91
2021/08/13 09:26:11;;;;;;;;;;;;;;;23.97;49.60;102219.69;5071112;28;20037;-93
2021/08/13 09:28:58;;;;;;;3.85;0.77;;;;;;;24.06;49.43;102211.06;5053272;28;20283;-91
2021/08/13 09:31:28;;;;;;;0.30;0.30;;;;;;;24.28;49.07;102199.03;5050394;28;20025;-92
2021/08/13 09:34:04;;;;;;;0.10;0.10;;;;;;;23.92;48.58;102219.09;5050367;28;20029;-91
2021/08/13 09:36:33;;;;;;;0.10;0.10;;;;;;;23.63;48.66;102235.00;5050583;28;20029;-91
2021/08/13 09:39:08;;;;;;;0.03;0.03;;;;;;;24.00;47.45;102227.63;5050152;28;20029;-90
2021/08/13 09:41:53;;;;;;;0.22;0.22;;;;;;;23.97;47.79;102239.50;5050304;28;20080;-92
2021/08/13 09:44:37;;;;;;;0.20;0.20;;;;;;;24.05;47.97;102225.53;5050101;28;20029;-91
2021/08/13 09:47:07;;;;;;;0.10;0.10;;;;;;;24.00;46.83;102238.47;5050192;28;20061;-91
2021/08/13 09:49:36;;;;;;;0.10;0.10;;;;;;;23.84;47.12;102239.28;5049725;28;20031;-91
2021/08/13 09:52:11;;;;;;;0.10;0.10;;;;;;;23.79;47.76;102257.59;5050404;28;20025;-91
2021/08/13 09:54:38;;;;;;;0.10;0.10;;;;;;;24.03;47.34;102252.72;5049763;28;20159;-91
2021/08/13 09:57:09;;;;;;;0.10;0.10;;;;;;;24.04;46.57;102245.47;5049834;28;20037;-91
2021/08/13 09:59:36;;;;;;;0.40;0.40;;;;;;;24.14;45.00;102249.44;5049537;28;20029;-90
2021/08/13 10:02:12;;;;;;;2.53;1.10;;;;;;;24.36;44.93;102268.06;5049355;28;20121;-91
2021/08/13 10:04:38;;;;;;;0.17;0.17;;;;;;;24.32;44.85;102274.59;5049323;28;20492;-90
2021/08/13 10:07:05;;;;;;;0.22;0.22;;;;;;;24.37;44.42;102280.66;5049527;28;20424;-91
2021/08/13 10:09:32;;;;;;;0.10;0.10;;;;;;;24.28;44.63;102264.91;5049679;28;20029;-92
2021/08/13 10:12:00;;;;;;;0.20;0.20;;;;;;;24.31;44.82;102269.28;5049375;28;20122;-91
2021/08/13 10:19:52;;;;;;;0.00;0.00;;;;;;;24.78;43.32;102260.31;5076401;27;20421;-88
2021/08/13 10:22:20;;;;;;;0.10;0.10;;;;;;;25.09;43.40;102261.22;5070009;28;20108;-87
2021/08/13 10:24:47;;;;;;;0.77;0.77;;;;;;;25.33;42.75;102260.72;5069457;28;20480;-89
2021/08/13 10:27:18;;;;;;;0.00;0.00;;;;;;;25.20;42.02;102247.91;5065329;28;20492;-87
2021/08/13 10:29:47;;;;;;;22.23;0.85;;;;;;;24.78;41.61;102259.44;5046664;28;20033;-87
2021/08/13 10:32:18;;;;;;;0.10;0.10;;;;;;;24.93;40.22;102255.81;5049854;28;20507;-86
2021/08/13 10:34:45;;;;;;;0.10;0.10;;;;;;;25.01;41.24;102253.56;5047079;28;20036;-88
2021/08/13 10:37:14;;;;;;;0.10;0.10;;;;;;;25.03;39.85;102262.47;5049282;28;20311;-88
2021/08/13 10:39:41;;;;;;;0.98;0.47;;;;;;;24.94;40.42;102264.84;5048971;28;20029;-87
2021/08/13 10:42:13;;;;;;;0.00;0.00;;;;;;;24.85;40.57;102253.56;5046420;28;20022;-88
2021/08/13 10:45:00;;;;;;;0.20;0.20;;;;;;;25.04;40.47;102269.63;5029543;28;20033;-90
2021/08/13 10:47:30;;;;;;;0.95;0.57;;;;;;;24.88;41.19;102257.94;5045232;28;20120;-89
2021/08/13 10:49:58;;;;;;;0.25;0.25;;;;;;;25.24;41.16;102239.59;5049282;28;20786;-90
2021/08/13 10:52:40;;;;;;;0.47;0.47;;;;;;;25.11;40.53;102256.59;5050165;28;20112;-88
2021/08/13 10:55:08;;;;;;;0.10;0.10;;;;;;;25.18;39.97;102247.13;5048953;28;20365;-89
2021/08/13 11:01:12;;;;;;;0.00;0.00;;;;;;;25.60;40.55;102246.47;5070303;27;20244;-89
2021/08/13 11:03:43;;;;;;;0.10;0.10;;;;;;;25.35;39.80;102267.78;5069764;28;20041;-90
2021/08/13 11:06:10;;;;;;;0.17;0.17;;;;;;;25.41;39.91;102258.47;5069924;28;20043;-87
2021/08/13 11:11:22;;;;;;;2.80;0.57;;;;;;;25.29;40.84;102251.88;5062160;27;20466;-87
2021/08/13 11:13:51;;;;;;;0.10;0.10;;;;;;;25.11;39.85;102264.72;5052314;28;20033;-88
2021/08/13 11:16:33;;;;;;;0.10;0.10;;;;;;;25.30;40.41;102263.63;5039153;28;20108;-87
2021/08/13 11:19:01;;;;;;;0.10;0.10;;;;;;;25.17;41.02;102256.22;5030946;28;20021;-89
2021/08/13 11:24:14;;;;;;;0.75;0.75;;;;;;;25.28;40.39;102281.81;5061287;27;20415;-88
2021/08/13 11:29:46;;;;;;;0.73;0.73;;;;;;;25.03;39.96;102267.00;5111437;27;20927;-89
2021/08/13 11:43:20;;;;;;;1.13;1.08;;;;;;;25.11;40.51;102253.88;5150788;27;20455;-89
2021/08/13 11:45:48;;;;;;;0.00;0.00;;;;;;;25.28;39.99;102243.84;5150890;27;20080;-90
2021/08/13 11:48:15;;;;;;;0.30;0.30;;;;;;;25.31;39.64;102252.69;5136902;27;20028;-89
2021/08/13 11:50:42;;;;;;;1.13;0.88;;;;;;;25.12;40.21;102261.06;5129910;27;20522;-89
2021/08/13 11:53:08;;;;;;;0.90;0.85;;;;;;;25.03;39.88;102261.59;5130489;27;20023;-89
2021/08/13 11:55:35;;;;;;;0.47;0.47;;;;;;;24.79;41.52;102259.34;5130188;27;20042;-91
2021/08/13 11:58:05;;;;;;;0.20;0.20;;;;;;;25.15;40.57;102258.16;5116324;27;20470;-89
2021/08/13 12:00:36;;;;;;;0.10;0.10;;;;;;;25.01;40.71;102264.41;5109491;28;20089;-88
2021/08/13 12:03:06;;;;;;;0.75;0.75;;;;;;;25.32;40.50;102257.16;5108313;28;20032;-86
2021/08/13 12:05:37;;;;;;;0.20;0.20;;;;;;;24.97;40.71;102262.84;5109425;28;20024;-82
2021/08/13 12:08:06;;;;;;;0.52;0.52;;;;;;;25.11;40.58;102259.31;5109486;28;20035;-82
2021/08/13 12:10:39;;;;;;;0.32;0.32;;;;;;;25.33;40.75;102263.44;5109391;28;20024;-88
2021/08/13 12:13:07;;;;;;;0.00;0.00;;;;;;;25.39;40.61;102271.22;5108773;28;20069;-89
2021/08/13 12:15:36;;;;;;;5.13;1.60;;;;;;;25.58;40.75;102270.97;5109630;27;20066;-90
2021/08/13 12:18:09;;;;;;;0.20;0.20;;;;;;;25.61;39.61;102270.81;5109516;28;20085;-90
2021/08/13 12:20:38;;;;;;;0.10;0.10;;;;;;;25.89;39.28;102277.22;5107857;28;20031;-89
2021/08/13 12:23:08;;;;;;;0.20;0.20;;;;;;;25.85;40.03;102281.13;5108366;28;20028;-92
2021/08/13 12:25:42;;;;;;;0.10;0.10;;;;;;;25.77;40.19;102268.03;5108991;28;20031;-90
2021/08/13 12:28:10;;;;;;;0.77;0.65;;;;;;;25.83;38.97;102272.19;5109149;28;20081;-89
2021/08/13 12:30:44;;;;;;;0.00;0.00;;;;;;;25.99;39.03;102261.22;5108546;28;20502;-90
2021/08/13 12:33:21;;;;;;;0.60;0.60;;;;;;;26.40;39.02;102259.59;5108460;28;20016;-92
2021/08/13 12:35:57;;;;;;;0.30;0.30;;;;;;;26.35;38.91;102270.75;5107390;28;20028;-90
2021/08/13 12:38:32;;;;;;;0.10;0.10;;;;;;;26.43;38.79;102275.69;5108524;28;20024;-88
2021/08/13 12:41:01;;;;;;;0.10;0.10;;;;;;;26.41;38.82;102270.34;5107887;28;20040;-89
2021/08/13 12:43:44;;;;;;;0.03;0.03;;;;;;;26.60;39.18;102271.88;5109107;28;20122;-90
2021/08/13 12:46:10;;;;;;;0.10;0.10;;;;;;;26.42;39.95;102277.53;5108825;28;20024;-89
2021/08/13 12:48:46;;;;;;;0.00;0.00;;;;;;;26.34;39.06;102269.00;5108257;28;20249;-90
2021/08/13 12:51:28;;;;;;;0.80;0.60;;;;;;;26.50;39.83;102265.31;5089577;28;20027;-91
2021/08/13 12:53:54;;;;;;;;;;;;;;;26.59;39.37;102259.25;5101563;28;20470;-88
2021/08/13 12:56:23;;;;;;;0.20;0.20;;;;;;;26.33;37.83;102269.97;5115482;28;19918;-90